METAR Data
IDs: Format: Raw Decoded Include TAF

Data at: 2219 UTC 14 Dec 2018

METAR for:KAUS (Austin/Bergstrom Int, TX, US)
Text:KAUS 142153Z 31014G21KT 280V340 10SM OVC031 12/03 A3007 RMK AO2 PK WND 32027/2056 SLP184 T01170033
Temperature: 11.7°C ( 53°F)
Dewpoint: 3.3°C ( 38°F) [RH = 56%]
Pressure (altimeter):30.07 inches Hg (1018.4 mb) [Sea level pressure: 1018.4 mb]
Winds:from the NW (310 degrees) at 16 MPH (14 knots; 7.2 m/s) gusting to 24 MPH (21 knots; 10.8 m/s)
Visibility:10 or more sm (16+ km)
Ceiling:3100 feet AGL
Clouds: overcast cloud deck at 3100 feet AGL